首页
METAR-TAF:

METAR-TAF

机场 :

敖德薩國際機場

敖德薩, 乌克兰

纬度: 46-26N, 经度: 030-46E, 海拔: 42米

当前天气观测

该预报发布于29分钟前的06:30 UTC
风速8节,风向东转东北,在北转东北之间变化
温度 21°C
湿度 69%
气压 1008 hPa
能见度10公里或以上
1500米以下无云,无积雨云

METAR: UKOO 190630Z 07004MPS 030V100 CAVOK 21/15 Q1008 R34/090060 NOSIG

时间: 09:59 (06:59 UTC)

预报

该预报发布于1小时和53分钟前的05:06 UTC
预报有效从19日的 06点(UTC)到 20日的 06点(UTC)
风速10节,风向东转东南,有时为21节阵风
能見度: 6000
多云层高于1000英尺
散云层高于2000英尺, 积雨云.
几率 40% :
短暂存在
从 19日的 06点(UTC)到 19日的 16点(UTC)
风速33节,风向多变
能見度: 1000
雷暴, 雨, 冰雹
成为
从 19日的 16点(UTC)到 19日的 17点(UTC)
风速6节,风向东转东北
能見度: 2100
轻雾

TAF: UKOO 190506Z 1906/2006 11005G11MPS 6000 BKN010 SCT020CB TX28/1911Z TN16/2002Z PROB40 TEMPO 1906/1916 VRB17MPS 1000 TSRAGR BECMG 1916/1917 06003MPS 2100 BR

超过4000个机场的气象观测和天气预报(METAR&TAF报告)。

可查询的气象台以黄色和红色小点在地图上表示。

将鼠标移到小点上方,可查看气象台名称。

然后点击查看天气观测和预报。

如需切换地图:点击带黑十字的绿色按钮放大地图;点击带横线的绿色按钮缩小地图;或者点击绿色箭头查看邻近地区的地图。


METAR-TAF: